Jacks Cabin, Colorado
Current Conditions -  °F | °C
As of 6:34 PM on Saturday 25 Oct 2014 (Local Time) from K7BM Reporting Station
Clear Clear  
Wind Chill: 59°   Ceiling: Unl
Heat Index: 59°   Visibility: 10mi
Dew Point:   Wind: 8mph
Humidity: 10%   Direction: 240°WSW
Pressure: 30.37"   Gusts: NA
Location:  38.7752°N, 106.586°W
Report Text: K7BM 260034Z AUTO 24007KT 10SM CLR 15/M17 A3037 RMK AO2
Loading
Personal Weather Stations






























Interactive Weather Map
Tropical Storm Tracking
New forecast layout! Learn more

10-Day Weather Forecast

Advertisements
Track Severe Weather on mobile